Time;durP1;ratioP1;P1;durP2;ratioP2;P2;SDS_P1;SDS_P2;PMS_P1;PMS_P2;Temp;Humidity;BMP_temperature;BMP_pressure;BME280_temperature;BME280_humidity;BME280_pressure;Samples;Min_cycle;Max_cycle;Signal;HPM_P1;HPM_P2
2021/12/04 00:00:03;;;;;;;;;3.00;3.00;;;;;10.93;81.84;99578.69;5023103;28;45422;-58
2021/12/04 00:02:28;;;;;;;;;2.25;2.25;;;;;10.96;82.51;99569.69;5022979;28;45406;-58
2021/12/04 00:04:55;;;;;;;;;2.25;2.25;;;;;10.99;82.44;99556.28;5022766;28;46018;-59
2021/12/04 00:07:22;;;;;;;;;2.50;1.75;;;;;11.02;82.37;99556.88;5023139;28;45291;-58
2021/12/04 00:09:50;;;;;;;;;0.75;0.75;;;;;11.06;82.06;99550.41;5022992;28;45308;-59
2021/12/04 00:12:19;;;;;;;;;0.00;0.00;;;;;11.08;82.56;99548.47;5023105;28;45273;-59
2021/12/04 00:14:45;;;;;;;;;1.00;0.00;;;;;11.09;82.70;99531.69;5022585;28;45268;-59
2021/12/04 00:17:10;;;;;;;;;2.00;1.00;;;;;11.16;82.62;99526.78;5022318;28;45308;-59
2021/12/04 00:19:37;;;;;;;;;0.00;0.00;;;;;11.20;82.36;99528.19;5022801;28;45311;-58
2021/12/04 00:22:04;;;;;;;;;0.00;0.00;;;;;11.24;82.75;99523.50;5022807;28;45535;-59
2021/12/04 00:24:30;;;;;;;;;0.00;0.00;;;;;11.26;82.91;99516.31;5022324;28;45307;-58
2021/12/04 00:26:56;;;;;;;;;0.00;0.00;;;;;11.30;82.82;99523.03;5021771;28;45310;-59
2021/12/04 00:29:23;;;;;;;;;0.00;0.00;;;;;11.33;83.06;99518.31;5022689;28;45415;-58
2021/12/04 00:31:51;;;;;;;;;0.00;0.00;;;;;11.38;83.10;99512.69;5022228;28;45541;-58
2021/12/04 00:34:22;;;;;;;;;0.00;0.00;;;;;11.41;83.12;99510.63;5022429;28;45397;-59
2021/12/04 00:50:13;;;;;;;;;0.00;0.00;;;;;11.67;83.06;99494.44;5022529;28;45493;-58
2021/12/04 00:52:39;;;;;;;;;1.00;0.00;;;;;11.71;82.95;99495.84;5022656;28;45174;-58
2021/12/04 00:55:05;;;;;;;;;0.00;0.00;;;;;11.77;82.62;99491.84;5018779;28;46022;-58
2021/12/04 00:57:31;;;;;;;;;0.00;0.00;;;;;11.82;82.73;99489.69;5011302;28;45410;-58
2021/12/04 00:59:57;;;;;;;;;0.00;0.00;;;;;11.86;82.55;99489.31;5021221;28;45375;-58
2021/12/04 01:02:23;;;;;;;;;0.00;0.00;;;;;11.92;82.62;99490.59;5021247;28;45363;-59
2021/12/04 01:04:49;;;;;;;;;0.00;0.00;;;;;11.95;82.54;99480.63;5021495;28;45887;-59
2021/12/04 01:07:16;;;;;;;;;0.75;0.00;;;;;12.02;82.65;99488.88;5022196;28;45330;-58
2021/12/04 01:09:43;;;;;;;;;0.00;0.00;;;;;12.06;82.44;99490.25;5021987;28;45325;-59
2021/12/04 01:12:09;;;;;;;;;0.00;0.00;;;;;12.10;82.18;99486.41;5022078;28;45268;-58
2021/12/04 01:14:34;;;;;;;;;0.00;0.00;;;;;12.16;82.18;99485.03;5021684;28;46001;-58
2021/12/04 01:17:00;;;;;;;;;0.00;0.00;;;;;12.18;82.35;99483.09;5018347;28;45378;-58
2021/12/04 01:19:26;;;;;;;;;0.00;0.00;;;;;12.22;82.32;99495.06;5021825;28;45194;-59
2021/12/04 01:21:53;;;;;;;;;0.00;0.00;;;;;12.26;82.07;99504.41;5011447;28;45223;-59
2021/12/04 01:24:19;;;;;;;;;0.00;0.00;;;;;12.27;82.20;99495.50;5018489;28;45372;-59
2021/12/04 01:26:45;;;;;;;;;0.00;0.00;;;;;12.28;82.22;99484.81;5021785;28;45474;-59
2021/12/04 01:29:11;;;;;;;;;0.00;0.00;;;;;12.31;82.10;99488.97;5021440;28;45323;-59
2021/12/04 01:31:37;;;;;;;;;0.00;0.00;;;;;12.31;82.34;99491.63;5021337;28;45379;-59
2021/12/04 01:34:03;;;;;;;;;0.00;0.00;;;;;12.35;82.18;99489.56;5021374;28;45242;-56
2021/12/04 01:36:29;;;;;;;;;1.00;0.00;;;;;12.36;82.62;99496.53;5021995;28;45343;-58
2021/12/04 01:38:55;;;;;;;;;0.00;0.00;;;;;12.38;82.43;99497.22;5021674;28;45276;-58
2021/12/04 01:41:21;;;;;;;;;0.50;0.00;;;;;12.39;82.36;99497.06;5015980;28;45309;-57
2021/12/04 01:43:47;;;;;;;;;0.00;0.00;;;;;12.40;82.61;99504.06;5021272;28;45339;-58
2021/12/04 01:46:13;;;;;;;;;0.00;0.00;;;;;12.41;82.63;99510.16;5021338;28;45288;-58
2021/12/04 01:48:38;;;;;;;;;0.00;0.00;;;;;12.39;82.45;99498.88;5008271;28;45237;-58
2021/12/04 01:51:04;;;;;;;;;0.00;0.00;;;;;12.41;82.69;99500.44;5021760;28;45580;-59
2021/12/04 01:53:30;;;;;;;;;0.00;0.00;;;;;12.42;82.53;99493.34;5020772;28;45429;-58
2021/12/04 01:55:58;;;;;;;;;0.00;0.00;;;;;12.42;82.61;99502.13;5021210;28;45291;-58
2021/12/04 01:58:24;;;;;;;;;0.00;0.00;;;;;12.42;82.78;99502.13;5021433;28;45424;-58
2021/12/04 02:00:51;;;;;;;;;0.00;0.00;;;;;12.44;82.40;99500.16;5021121;28;45208;-59
2021/12/04 02:03:18;;;;;;;;;0.00;0.00;;;;;12.47;82.72;99504.34;5020688;28;46258;-58
2021/12/04 02:05:44;;;;;;;;;1.00;0.00;;;;;12.48;82.57;99498.94;5021288;28;45323;-59
2021/12/04 02:08:14;;;;;;;;;0.00;0.00;;;;;12.50;82.15;99509.38;5020969;28;45272;-58
2021/12/04 02:10:40;;;;;;;;;0.00;0.00;;;;;12.52;82.38;99502.97;5021027;28;45391;-59
2021/12/04 02:13:06;;;;;;;;;1.00;0.00;;;;;12.54;82.38;99510.75;5020899;28;45384;-59
2021/12/04 02:15:31;;;;;;;;;0.00;0.00;;;;;12.55;82.24;99507.97;5020982;28;45364;-58
2021/12/04 02:17:57;;;;;;;;;0.00;0.00;;;;;12.57;82.18;99503.44;5020836;28;45256;-58
2021/12/04 02:20:27;;;;;;;;;0.00;0.00;;;;;12.60;82.13;99504.13;5021273;28;45162;-58
2021/12/04 02:22:54;;;;;;;;;0.00;0.00;;;;;12.63;82.14;99507.31;5020763;28;46566;-58
2021/12/04 02:25:20;;;;;;;;;0.00;0.00;;;;;12.64;81.98;99509.00;5019526;28;45574;-58
2021/12/04 02:27:46;;;;;;;;;0.00;0.00;;;;;12.66;81.85;99511.50;5020920;28;45236;-58
2021/12/04 02:30:19;;;;;;;;;0.00;0.00;;;;;12.66;81.91;99509.72;5020921;28;45541;-59
2021/12/04 02:32:46;;;;;;;;;0.00;0.00;;;;;12.69;81.81;99509.44;5020268;28;45562;-58
2021/12/04 02:35:14;;;;;;;;;0.00;0.00;;;;;12.69;82.01;99516.53;5020699;28;45340;-58
2021/12/04 02:37:40;;;;;;;;;0.00;0.00;;;;;12.69;81.97;99509.44;5020923;28;45359;-59
2021/12/04 02:40:08;;;;;;;;;0.50;0.00;;;;;12.70;81.84;99505.81;5020882;28;45577;-58
2021/12/04 02:42:34;;;;;;;;;0.00;0.00;;;;;12.69;81.49;99505.94;5020675;28;45188;-58
2021/12/04 02:45:03;;;;;;;;;0.25;0.00;;;;;12.71;81.71;99514.56;5020699;28;45331;-59
2021/12/04 02:47:29;;;;;;;;;0.00;0.00;;;;;12.72;81.42;99508.34;5019975;28;45335;-58
2021/12/04 02:49:56;;;;;;;;;0.00;0.00;;;;;12.74;81.37;99515.16;5020775;28;45351;-58
2021/12/04 02:52:23;;;;;;;;;0.00;0.00;;;;;12.76;81.50;99510.56;5020231;28;45425;-58
2021/12/04 02:54:50;;;;;;;;;0.00;0.00;;;;;12.78;81.27;99507.78;5020486;28;45361;-58
2021/12/04 02:57:18;;;;;;;;;0.00;0.00;;;;;12.80;81.13;99505.84;5020556;28;45459;-58
2021/12/04 02:59:44;;;;;;;;;0.50;0.00;;;;;12.80;81.13;99514.63;5020490;28;45354;-58
2021/12/04 03:02:20;;;;;;;;;0.00;0.00;;;;;12.80;81.16;99517.25;5020036;28;45327;-58
2021/12/04 03:04:49;;;;;;;;;0.00;0.00;;;;;12.81;81.31;99523.38;5020349;28;45299;-58
2021/12/04 03:07:15;;;;;;;;;0.00;0.00;;;;;12.82;81.22;99520.59;5020633;28;45451;-58
2021/12/04 03:09:41;;;;;;;;;0.00;0.00;;;;;12.80;81.08;99519.91;5020676;28;45209;-58
2021/12/04 03:12:08;;;;;;;;;0.00;0.00;;;;;12.81;81.12;99507.53;5020332;28;46092;-58
2021/12/04 03:14:34;;;;;;;;;0.00;0.00;;;;;12.82;80.95;99509.19;5020344;28;45224;-58
2021/12/04 03:17:00;;;;;;;;;0.75;0.00;;;;;12.82;80.99;99509.19;5019994;28;45296;-58
2021/12/04 03:19:27;;;;;;;;;1.00;0.00;;;;;12.83;80.93;99511.69;5020220;28;45371;-58
2021/12/04 03:21:53;;;;;;;;;0.00;0.00;;;;;12.85;80.86;99512.38;5022122;28;45350;-58
2021/12/04 03:24:19;;;;;;;;;0.00;0.00;;;;;12.88;80.70;99511.31;5023670;28;45308;-58
2021/12/04 03:26:49;;;;;;;;;0.00;0.00;;;;;12.88;80.72;99513.94;5023666;28;45384;-58
2021/12/04 03:29:18;;;;;;;;;0.00;0.00;;;;;12.88;80.77;99506.03;5023695;28;45580;-58
2021/12/04 03:42:40;;;;;;;;;0.00;0.00;;;;;12.86;80.43;99513.22;5022156;28;46033;-58
2021/12/04 03:45:08;;;;;;;;;0.75;0.00;;;;;12.88;80.52;99507.81;5023168;28;45328;-58
2021/12/04 03:47:37;;;;;;;;;0.00;0.00;;;;;12.88;80.41;99515.75;5023013;28;45355;-58
2021/12/04 03:50:03;;;;;;;;;0.00;0.00;;;;;12.87;80.28;99514.88;5023382;28;45588;-58
2021/12/04 03:52:28;;;;;;;;;0.00;0.00;;;;;12.86;80.34;99500.84;5023247;28;46177;-58
2021/12/04 03:54:54;;;;;;;;;0.00;0.00;;;;;12.88;80.21;99506.03;5022822;28;45387;-58
2021/12/04 03:57:19;;;;;;;;;0.00;0.00;;;;;12.89;80.15;99501.56;5023583;28;45300;-58
2021/12/04 03:59:47;;;;;;;;;0.00;0.00;;;;;12.86;80.10;99508.78;5023316;28;45380;-58
2021/12/04 04:02:15;;;;;;;;;0.00;0.00;;;;;12.88;80.24;99503.38;5023065;28;46061;-57
2021/12/04 04:04:41;;;;;;;;;2.00;0.00;;;;;12.89;80.24;99517.44;5022983;28;45232;-59
2021/12/04 04:07:07;;;;;;;;;0.00;0.00;;;;;12.89;80.22;99507.69;5023269;28;45459;-59
2021/12/04 04:09:33;;;;;;;;;1.50;0.00;;;;;12.90;79.90;99508.53;5023099;28;45506;-58
2021/12/04 04:12:00;;;;;;;;;0.00;0.00;;;;;12.90;79.59;99505.88;5023130;28;46284;-58
2021/12/04 04:14:25;;;;;;;;;0.00;0.00;;;;;12.90;79.78;99506.72;5009419;28;45521;-58
2021/12/04 04:16:54;;;;;;;;;1.00;0.00;;;;;12.93;79.70;99505.59;5022747;28;45474;-57
2021/12/04 04:19:20;;;;;;;;;1.00;0.00;;;;;12.92;79.96;99522.44;5022897;28;45549;-58
2021/12/04 04:21:46;;;;;;;;;0.00;0.00;;;;;12.92;79.67;99512.69;5022702;28;46418;-58
2021/12/04 04:24:14;;;;;;;;;0.75;0.00;;;;;12.94;79.56;99512.53;5026404;28;45788;-58
2021/12/04 04:26:41;;;;;;;;;0.00;0.00;;;;;12.94;79.23;99508.09;5012180;28;45391;-58
2021/12/04 04:29:08;;;;;;;;;0.00;0.00;;;;;12.95;79.35;99506.28;5022763;28;45359;-58
2021/12/04 04:31:35;;;;;;;;;0.00;0.00;;;;;12.95;79.38;99503.63;5022017;28;45458;-58
2021/12/04 04:34:08;;;;;;;;;0.00;0.00;;;;;12.96;79.16;99511.47;5022406;28;45237;-58
2021/12/04 05:01:20;;;;;;;;;0.00;0.00;;;;;12.92;78.26;99514.50;5022281;28;45342;-58
2021/12/04 05:12:24;;;;;;;;;0.00;0.00;;;;;12.92;78.79;99490.72;5022159;28;45315;-58
2021/12/04 05:14:45;;;;;;;;;0.00;0.00;;;;;12.92;78.79;99499.47;5021594;28;46181;-58
2021/12/04 05:17:25;;;;;;;;;1.00;0.00;;;;;12.92;78.78;99488.91;5011693;28;45360;-58
2021/12/04 05:19:54;;;;;;;;;1.00;0.00;;;;;12.93;78.72;99495.84;5008993;28;45347;-58
2021/12/04 05:22:21;;;;;;;;;0.00;0.00;;;;;12.93;78.84;99490.56;5021944;28;45403;-58
2021/12/04 05:24:47;;;;;;;;;1.00;0.00;;;;;12.93;78.48;99481.81;5021966;28;46283;-58
2021/12/04 05:27:13;;;;;;;;;0.00;0.00;;;;;12.94;78.78;99494.88;5021500;28;45251;-58
2021/12/04 05:29:39;;;;;;;;;0.00;0.00;;;;;12.96;78.45;99489.47;5022108;28;45222;-58
2021/12/04 05:32:07;;;;;;;;;0.00;0.00;;;;;12.96;78.44;99492.13;5021448;28;45639;-58
2021/12/04 05:34:33;;;;;;;;;0.00;0.00;;;;;12.95;78.43;99493.06;5021460;28;46279;-58
2021/12/04 05:36:59;;;;;;;;;0.00;0.00;;;;;12.94;78.36;99492.25;5021587;28;45566;-59
2021/12/04 05:39:25;;;;;;;;;0.00;0.00;;;;;12.93;78.30;99487.09;5021797;28;45337;-58
2021/12/04 05:41:51;;;;;;;;;0.00;0.00;;;;;12.94;78.16;99481.66;5021669;28;45166;-58
2021/12/04 05:44:20;;;;;;;;;0.00;0.00;;;;;12.95;78.10;99487.78;5020625;28;46232;-58
2021/12/04 05:46:54;;;;;;;;;0.00;0.00;;;;;12.95;78.24;99485.13;5021010;28;45335;-59
2021/12/04 05:49:33;;;;;;;;;0.00;0.00;;;;;12.95;78.26;99493.06;5021559;28;45367;-58
2021/12/04 05:57:10;;;;;;;;;0.00;0.00;;;;;12.94;78.13;99500.16;5021199;28;45380;-58
2021/12/04 05:59:36;;;;;;;;;0.00;0.00;;;;;12.93;77.85;99501.13;5021394;28;45189;-58
2021/12/04 06:02:02;;;;;;;;;0.00;0.00;;;;;12.93;77.92;99495.84;5021260;28;45236;-58
2021/12/04 06:04:28;;;;;;;;;0.00;0.00;;;;;12.94;78.06;99497.53;5021315;28;45515;-58
2021/12/04 06:06:54;;;;;;;;;0.00;0.00;;;;;12.95;77.79;99490.44;5021186;28;45318;-58
2021/12/04 06:09:20;;;;;;;;;0.00;0.00;;;;;12.96;77.89;99489.47;5021373;28;45456;-58
2021/12/04 06:11:46;;;;;;;;;0.00;0.00;;;;;12.96;77.90;99494.78;5021451;28;45352;-59
2021/12/04 06:14:11;;;;;;;;;0.00;0.00;;;;;12.94;77.65;99494.88;5021205;28;45507;-59
2021/12/04 06:16:37;;;;;;;;;0.00;0.00;;;;;12.91;77.50;99497.81;5020599;28;45316;-59
2021/12/04 06:19:24;;;;;;;;;1.00;0.00;;;;;12.90;77.37;99487.38;5021049;28;45380;-59
2021/12/04 06:24:34;;;;;;;;;0.25;0.00;;;;;12.91;77.44;99473.19;5020824;28;45858;-59
2021/12/04 06:27:00;;;;;;;;;1.50;1.50;;;;;12.90;77.51;99487.38;5020876;28;45390;-58
2021/12/04 06:29:26;;;;;;;;;0.00;0.00;;;;;12.89;77.44;99477.78;5020995;28;45518;-59
2021/12/04 06:31:51;;;;;;;;;0.00;0.00;;;;;12.85;77.36;99464.00;5020705;28;45443;-59
2021/12/04 06:34:17;;;;;;;;;1.00;0.00;;;;;12.84;77.51;99468.44;5020447;28;45356;-59
2021/12/04 06:36:42;;;;;;;;;0.00;0.00;;;;;12.83;77.21;99460.66;5021033;28;45224;-59
2021/12/04 06:39:09;;;;;;;;;0.00;0.00;;;;;12.82;77.13;99467.75;5020819;28;45379;-59
2021/12/04 06:41:35;;;;;;;;;0.00;0.00;;;;;12.81;77.43;99460.78;5020990;28;45417;-59
2021/12/04 06:44:00;;;;;;;;;0.00;0.00;;;;;12.80;77.27;99458.28;5020462;28;45390;-59
2021/12/04 06:46:27;;;;;;;;;0.00;0.00;;;;;12.78;77.27;99457.56;5020459;28;45315;-58
2021/12/04 06:51:33;;;;;;;;;0.00;0.00;;;;;12.75;77.33;99461.34;5020800;28;45260;-59
2021/12/04 06:54:08;;;;;;;;;1.00;0.00;;;;;12.75;77.33;99465.78;5020461;28;45383;-59
2021/12/04 06:56:35;;;;;;;;;0.00;0.00;;;;;12.76;77.44;99462.16;5023362;28;45149;-59
2021/12/04 06:59:05;;;;;;;;;0.00;0.00;;;;;12.77;77.35;99463.84;5024182;28;45366;-59
2021/12/04 07:01:31;;;;;;;;;1.00;0.00;;;;;12.78;77.59;99453.13;5023951;28;45304;-59
2021/12/04 07:03:56;;;;;;;;;0.00;0.00;;;;;12.80;77.44;99442.44;5024048;28;45770;-59
2021/12/04 07:06:22;;;;;;;;;0.00;0.00;;;;;12.81;77.39;99446.75;5023933;28;45415;-59
2021/12/04 07:08:47;;;;;;;;;0.00;0.00;;;;;12.80;77.56;99448.56;5024199;28;45338;-59
2021/12/04 07:11:13;;;;;;;;;0.00;0.00;;;;;12.81;77.67;99457.31;5024079;28;45228;-57
2021/12/04 07:13:38;;;;;;;;;0.00;0.00;;;;;12.78;77.86;99453.13;5023972;28;45318;-57
2021/12/04 07:16:06;;;;;;;;;0.00;0.00;;;;;12.78;77.80;99452.28;5023549;28;45299;-58
2021/12/04 07:18:32;;;;;;;;;1.00;0.00;;;;;12.77;78.01;99458.53;5024097;28;45441;-59
2021/12/04 07:20:57;;;;;;;;;0.00;0.00;;;;;12.75;78.33;99452.56;5023678;28;45415;-58
2021/12/04 07:23:23;;;;;;;;;2.00;0.00;;;;;12.74;78.37;99449.09;5023611;28;45320;-58
2021/12/04 07:25:49;;;;;;;;;0.75;0.00;;;;;12.75;78.69;99449.94;5023805;28;45449;-58
2021/12/04 07:28:14;;;;;;;;;0.00;0.00;;;;;12.74;78.86;99435.06;5023975;28;45296;-58
2021/12/04 07:30:40;;;;;;;;;0.00;0.00;;;;;12.74;79.06;99443.81;5023357;28;45236;-58
2021/12/04 07:33:05;;;;;;;;;0.00;0.00;;;;;12.73;79.32;99433.38;5023261;28;45239;-58
2021/12/04 07:35:31;;;;;;;;;0.00;0.00;;;;;12.72;79.25;99429.06;5023427;28;45169;-58
2021/12/04 07:37:56;;;;;;;;;0.00;0.00;;;;;12.74;79.33;99440.34;5023878;28;45285;-58
2021/12/04 07:40:22;;;;;;;;;0.00;0.00;;;;;12.74;79.45;99448.25;5023595;28;45213;-58
2021/12/04 07:42:47;;;;;;;;;2.00;0.00;;;;;12.71;79.57;99448.50;5023367;28;45390;-58
2021/12/04 07:45:13;;;;;;;;;0.50;0.50;;;;;12.69;79.63;99437.25;5023401;28;45233;-58
2021/12/04 07:47:39;;;;;;;;;0.00;0.00;;;;;12.69;79.90;99439.91;5023210;28;45263;-59
2021/12/04 07:50:07;;;;;;;;;0.50;0.00;;;;;12.69;79.89;99434.63;5023454;28;45622;-58
2021/12/04 07:52:33;;;;;;;;;0.50;0.00;;;;;12.68;80.24;99451.44;5023375;28;45952;-58
2021/12/04 07:54:58;;;;;;;;;0.00;0.00;;;;;12.65;80.14;99441.16;5022884;28;45331;-59
2021/12/04 07:57:25;;;;;;;;;0.00;0.00;;;;;12.64;80.33;99452.66;5038846;28;45340;-58
2021/12/04 07:59:51;;;;;;;;;3.00;0.00;;;;;12.62;80.38;99444.88;5023194;28;45569;-58
2021/12/04 08:02:16;;;;;;;;;1.00;0.00;;;;;12.63;80.53;99435.97;5022690;28;45224;-58
2021/12/04 08:04:42;;;;;;;;;2.00;0.00;;;;;12.65;80.67;99443.78;5022864;28;45297;-58
2021/12/04 08:07:07;;;;;;;;;0.00;0.00;;;;;12.66;80.43;99450.75;5022489;28;45565;-59
2021/12/04 08:09:33;;;;;;;;;0.00;0.00;;;;;12.65;80.25;99442.00;5023090;28;45162;-58
2021/12/04 08:11:58;;;;;;;;;0.00;0.00;;;;;12.66;80.52;99458.66;5022799;28;45332;-58
2021/12/04 08:14:24;;;;;;;;;0.00;0.00;;;;;12.67;80.60;99455.88;5022887;28;45540;-58
2021/12/04 08:16:49;;;;;;;;;0.75;0.00;;;;;12.67;80.52;99452.41;5022733;28;45295;-59
2021/12/04 08:19:15;;;;;;;;;0.00;0.00;;;;;12.68;80.65;99467.28;5022912;28;45319;-57
2021/12/04 08:21:41;;;;;;;;;2.75;2.75;;;;;12.68;80.76;99459.38;5022670;28;45821;-58
2021/12/04 08:24:07;;;;;;;;;0.00;0.00;;;;;12.69;80.09;99461.03;5022676;28;45473;-58
2021/12/04 08:26:34;;;;;;;;;0.00;0.00;;;;;12.66;79.70;99453.38;5022523;28;45415;-58
2021/12/04 08:29:00;;;;;;;;;0.00;0.00;;;;;12.67;79.32;99473.56;5022680;28;45173;-58
2021/12/04 08:31:25;;;;;;;;;0.00;0.00;;;;;12.68;79.25;99470.78;5022353;28;46365;-58
2021/12/04 08:33:51;;;;;;;;;0.00;0.00;;;;;12.68;79.05;99477.84;5022598;28;45293;-58
2021/12/04 08:36:17;;;;;;;;;0.00;0.00;;;;;12.68;78.79;99480.50;5022741;28;45253;-58
2021/12/04 08:38:47;;;;;;;;;0.50;0.00;;;;;12.68;78.77;99481.34;5022870;28;45277;-58
2021/12/04 08:41:14;;;;;;;;;0.00;0.00;;;;;12.68;77.71;99472.56;5022480;28;45379;-58
2021/12/04 08:43:39;;;;;;;;;0.25;0.00;;;;;12.70;78.10;99486.47;5022360;28;45544;-57
2021/12/04 08:46:05;;;;;;;;;0.00;0.00;;;;;12.72;77.57;99480.09;5022105;28;45519;-58
2021/12/04 08:48:32;;;;;;;;;0.00;0.00;;;;;12.71;77.34;99478.41;5021943;28;45439;-59
2021/12/04 08:50:58;;;;;;;;;1.00;0.00;;;;;12.72;76.97;99490.69;5021654;28;45388;-59
2021/12/04 08:53:24;;;;;;;;;0.00;0.00;;;;;12.72;76.68;99497.78;5022122;28;45479;-58
2021/12/04 08:55:50;;;;;;;;;0.00;0.00;;;;;12.71;76.43;99496.06;5022138;28;45322;-58
2021/12/04 08:58:16;;;;;;;;;1.25;0.75;;;;;12.71;76.19;99502.19;5022366;28;45378;-58
2021/12/04 09:00:53;;;;;;;;;0.00;0.00;;;;;12.72;76.10;99511.81;5021827;28;45427;-58
2021/12/04 09:03:27;;;;;;;;;0.00;0.00;;;;;12.73;75.39;99510.84;5022022;28;45569;-58
2021/12/04 09:05:53;;;;;;;;;18.75;9.75;;;;;12.74;75.41;99514.31;5022179;28;45320;-58
2021/12/04 09:08:21;;;;;;;;;0.00;0.00;;;;;12.74;74.30;99517.78;5022186;28;45235;-58
2021/12/04 09:10:48;;;;;;;;;0.00;0.00;;;;;12.71;74.02;99530.41;5037266;28;46264;-58
2021/12/04 09:13:15;;;;;;;;;1.25;0.00;;;;;12.69;73.93;99519.16;5021804;28;45294;-58
2021/12/04 09:15:43;;;;;;;;;0.00;0.00;;;;;12.66;73.33;99522.09;5037070;28;45313;-58
2021/12/04 09:18:09;;;;;;;;;0.00;0.00;;;;;12.66;73.17;99525.56;5021072;28;45436;-58
2021/12/04 09:20:34;;;;;;;;;0.00;0.00;;;;;12.67;73.35;99534.31;5021017;28;45253;-59
2021/12/04 09:23:02;;;;;;;;;0.00;0.00;;;;;12.68;72.92;99534.19;5016304;28;45434;-58
2021/12/04 09:25:30;;;;;;;;;0.50;0.00;;;;;12.69;72.41;99527.09;5026849;28;45565;-57
2021/12/04 09:28:08;;;;;;;;;3.00;2.00;;;;;12.69;71.85;99548.22;5010786;28;45466;-58
2021/12/04 09:31:04;;;;;;;;;0.50;0.00;;;;;12.70;71.70;99548.09;5019018;28;46452;-58
2021/12/04 09:33:58;;;;;;;;;0.00;0.00;;;;;12.70;71.75;99558.66;5018192;28;45458;-58
2021/12/04 10:19:44;;;;;;;;;1.00;0.00;;;;;12.43;68.09;99643.75;5009169;28;45395;-58
2021/12/04 10:22:58;;;;;;;;;0.00;0.00;;;;;12.42;67.81;99643.91;5023409;28;45450;-59
2021/12/04 10:33:38;;;;;;;;;1.50;0.00;;;;;12.29;67.11;99663.41;5022079;28;45442;-70
2021/12/04 10:36:04;;;;;;;;;1.50;1.50;;;;;12.30;67.47;99662.44;5011361;28;46174;-57
2021/12/04 10:38:38;;;;;;;;;1.75;1.00;;;;;12.34;67.41;99655.09;5022695;28;45481;-59
2021/12/04 10:41:04;;;;;;;;;0.00;0.00;;;;;12.31;67.07;99665.91;5020961;28;45530;-59
2021/12/04 10:43:31;;;;;;;;;0.00;0.00;;;;;12.31;66.95;99665.91;5019840;28;45592;-54
2021/12/04 10:46:01;;;;;;;;;1.00;0.00;;;;;12.29;66.73;99659.91;5006541;28;45512;-57
2021/12/04 10:48:33;;;;;;;;;0.00;0.00;;;;;12.35;66.87;99669.13;5019344;28;45427;-55
2021/12/04 10:51:21;;;;;;;;;0.00;0.00;;;;;12.38;67.04;99669.72;5021397;28;45493;-58
2021/12/04 10:53:49;;;;;;;;;0.75;0.00;;;;;12.42;66.72;99670.31;5009189;28;45411;-57
2021/12/04 10:56:35;;;;;;;;;0.25;0.25;;;;;12.47;67.09;99668.09;5021981;28;45611;-55
2021/12/04 11:18:51;;;;;;;;;1.00;1.00;;;;;12.08;66.34;99690.72;5019605;28;45780;-51
2021/12/04 11:40:07;;;;;;;;;0.00;0.00;;;;;11.66;68.21;99735.44;5019591;28;46003;-53
2021/12/04 11:42:40;;;;;;;;;1.50;1.50;;;;;11.58;69.15;99748.41;5020946;28;45240;-52
2021/12/04 11:45:15;;;;;;;;;5.00;3.00;;;;;11.51;68.86;99803.41;5022695;28;45252;-53
2021/12/04 11:47:44;;;;;;;;;1.25;0.00;;;;;11.28;67.49;99770.09;5023209;28;45308;-52
2021/12/04 11:50:22;;;;;;;;;1.00;0.00;;;;;10.97;66.13;99776.88;5022586;28;45407;-51
2021/12/04 11:52:51;;;;;;;;;0.00;0.00;;;;;10.65;66.50;99759.09;5022272;28;45328;-54
2021/12/04 11:55:19;;;;;;;;;1.00;0.25;;;;;10.45;67.96;99757.13;5022981;28;45411;-53
2021/12/04 11:57:46;;;;;;;;;1.25;0.00;;;;;10.38;68.26;99767.25;5023573;28;45472;-54
2021/12/04 12:00:25;;;;;;;;;0.50;0.25;;;;;10.35;68.33;99775.41;5022128;28;45380;-53
2021/12/04 12:03:12;;;;;;;;;1.00;1.00;;;;;10.41;69.10;99761.75;5022198;28;45429;-50
2021/12/04 12:05:46;;;;;;;;;4.50;2.50;;;;;10.46;69.80;99772.78;5022942;28;45471;-52
2021/12/04 12:08:43;;;;;;;;;2.25;2.25;;;;;10.52;69.77;99774.97;5022800;28;45590;-51
2021/12/04 12:11:25;;;;;;;;;4.50;3.75;;;;;10.57;69.49;99775.44;5022282;28;46283;-53
2021/12/04 12:13:56;;;;;;;;;3.00;0.25;;;;;10.62;70.20;99773.31;5021295;28;45275;-54
2021/12/04 12:16:32;;;;;;;;;4.00;1.25;;;;;10.72;69.96;99778.75;5022386;28;45378;-53
2021/12/04 12:19:02;;;;;;;;;6.50;3.00;;;;;10.82;70.17;99778.88;5022313;28;45356;-52
2021/12/04 12:21:45;;;;;;;;;2.50;2.00;;;;;10.92;69.60;99774.63;5022145;28;45324;-51
2021/12/04 12:38:29;;;;;;;;;2.00;1.75;;;;;11.17;66.40;99828.94;5022752;28;45421;-53
2021/12/04 12:41:08;;;;;;;;;3.00;1.75;;;;;11.18;65.94;99839.34;5022053;28;45390;-53
2021/12/04 12:43:45;;;;;;;;;4.00;1.50;;;;;11.21;65.37;99837.41;5022387;28;46313;-54
2021/12/04 12:46:11;;;;;;;;;4.00;1.00;;;;;11.22;65.64;99842.59;5022041;28;45260;-50
2021/12/04 12:48:46;;;;;;;;;2.50;1.00;;;;;11.23;65.56;99848.72;5022151;28;45365;-49
2021/12/04 12:51:12;;;;;;;;;3.25;1.00;;;;;11.21;64.69;99854.06;5022128;28;45334;-54
2021/12/04 12:53:46;;;;;;;;;2.00;1.00;;;;;11.16;64.76;99862.34;5021244;28;46483;-51
2021/12/04 12:56:14;;;;;;;;;3.25;1.00;;;;;11.17;64.73;99856.13;5021886;28;45441;-55
2021/12/04 12:59:02;;;;;;;;;3.25;1.25;;;;;11.17;64.36;99865.81;5022048;28;45409;-54
2021/12/04 13:13:27;;;;;;;;;5.50;2.00;;;;;11.01;64.37;99887.22;5022045;28;45297;-52
2021/12/04 13:15:57;;;;;;;;;1.00;1.00;;;;;10.98;64.35;99879.56;5021472;28;46217;-53
2021/12/04 13:18:24;;;;;;;;;2.00;0.75;;;;;10.95;64.23;99882.41;5021539;28;45311;-55
2021/12/04 13:20:52;;;;;;;;;2.25;1.00;;;;;10.94;63.97;99874.63;5021250;28;45379;-53
2021/12/04 13:23:21;;;;;;;;;3.50;1.00;;;;;10.94;64.27;99875.47;5021516;28;46271;-54
2021/12/04 13:26:05;;;;;;;;;1.25;1.25;;;;;10.93;63.74;99883.47;5021569;28;45401;-51
2021/12/04 13:28:34;;;;;;;;;2.75;2.00;;;;;10.91;63.05;99883.59;5021545;28;45351;-53
2021/12/04 13:31:00;;;;;;;;;7.00;1.75;;;;;10.90;62.93;99892.44;5020945;28;45347;-53
2021/12/04 13:33:32;;;;;;;;;2.00;1.00;;;;;11.01;62.97;99881.94;5021501;28;45530;-49
2021/12/04 13:35:58;;;;;;;;;4.25;1.25;;;;;11.13;61.13;99888.91;5021191;28;46367;-52
2021/12/04 13:38:25;;;;;;;;;3.00;1.00;;;;;11.19;61.14;99890.25;5021526;28;45178;-53
2021/12/04 13:40:54;;;;;;;;;7.25;2.00;;;;;11.23;60.89;99888.25;5020983;28;45312;-54
2021/12/04 13:43:22;;;;;;;;;1.00;1.00;;;;;11.17;59.81;99887.75;5021413;28;45190;-53
2021/12/04 13:45:56;;;;;;;;;3.50;2.00;;;;;11.15;59.75;99894.94;5020802;28;45319;-54
2021/12/04 13:48:22;;;;;;;;;1.00;1.00;;;;;11.14;59.60;99887.16;5021110;28;45232;-52
2021/12/04 13:50:48;;;;;;;;;1.25;1.00;;;;;11.11;59.64;99882.09;5021101;28;45465;-53
2021/12/04 13:53:18;;;;;;;;;2.25;0.25;;;;;11.04;58.75;99875.59;5036203;28;45553;-53
2021/12/04 13:55:59;;;;;;;;;0.75;0.75;;;;;10.95;58.96;99881.56;5032959;28;45820;-52
2021/12/04 13:58:25;;;;;;;;;1.00;0.00;;;;;10.90;58.83;99887.16;5021042;28;45702;-53
2021/12/04 14:00:51;;;;;;;;;5.50;1.00;;;;;10.90;58.82;99880.13;5020730;28;45366;-51
2021/12/04 14:03:26;;;;;;;;;4.75;1.00;;;;;10.93;58.49;99875.56;5020799;28;45625;-50
2021/12/04 14:05:52;;;;;;;;;4.00;0.00;;;;;10.88;58.46;99878.53;5020404;28;45370;-53
2021/12/04 14:08:19;;;;;;;;;2.25;0.75;;;;;10.88;58.75;99871.47;5021049;28;45388;-53
2021/12/04 14:10:46;;;;;;;;;2.25;1.00;;;;;10.94;58.66;99864.91;5021342;28;45379;-54
2021/12/04 14:13:16;;;;;;;;;0.75;0.75;;;;;11.00;58.70;99876.81;5020683;28;45288;-50
2021/12/04 14:15:44;;;;;;;;;4.00;1.00;;;;;11.06;59.03;99886.88;5020622;28;45446;-55
2021/12/04 14:18:13;;;;;;;;;4.50;1.00;;;;;11.08;58.29;99895.53;5020471;28;45282;-51
2021/12/04 14:20:42;;;;;;;;;3.00;0.75;;;;;11.10;58.71;99894.44;5020924;28;45224;-55
2021/12/04 14:23:09;;;;;;;;;2.25;1.00;;;;;11.08;57.77;99885.81;5020679;28;45575;-53
2021/12/04 14:25:42;;;;;;;;;3.00;2.00;;;;;11.02;57.85;99894.16;5021117;28;45264;-52
2021/12/04 14:28:10;;;;;;;;;3.00;1.50;;;;;10.94;57.37;99901.81;5020401;28;45458;-52
2021/12/04 14:30:36;;;;;;;;;2.25;1.00;;;;;10.85;57.75;99907.75;5020542;28;45324;-50
2021/12/04 14:33:07;;;;;;;;;3.00;1.00;;;;;10.81;57.95;99906.28;5020170;28;45308;-51
2021/12/04 14:35:36;;;;;;;;;3.50;1.00;;;;;10.75;57.56;99910.25;5020134;28;45362;-52
2021/12/04 14:38:05;;;;;;;;;2.75;1.50;;;;;10.73;57.65;99922.66;5020398;28;45287;-52
2021/12/04 14:40:32;;;;;;;;;2.25;0.50;;;;;10.70;57.34;99929.94;5020651;28;45319;-52
2021/12/04 14:42:59;;;;;;;;;1.50;0.00;;;;;10.67;56.39;99938.09;5020542;28;45328;-55